Time;durP1;ratioP1;P1;durP2;ratioP2;P2;SDS_P1;SDS_P2;PMS_P1;PMS_P2;Temp;Humidity;BMP_temperature;BMP_pressure;BME280_temperature;BME280_humidity;BME280_pressure;Samples;Min_cycle;Max_cycle;Signal;HPM_P1;HPM_P2
2022/01/27 00:00:26;;;;;;;17.60;13.23;;;;;;;-2.18;87.17;97911.50;5100414;28;20170;-65
2022/01/27 00:03:13;;;;;;;15.10;13.07;;;;;;;-2.18;87.18;97903.72;5099657;28;20201;-65
2022/01/27 00:05:47;;;;;;;17.80;13.00;;;;;;;-2.24;87.09;97898.69;5099674;28;20202;-66
2022/01/27 00:08:17;;;;;;;17.03;13.37;;;;;;;-2.24;86.75;97885.72;5098988;28;20199;-67
2022/01/27 00:10:52;;;;;;;15.83;12.60;;;;;;;-2.26;86.88;97881.44;5091380;28;20531;-66
2022/01/27 00:13:23;;;;;;;16.93;13.00;;;;;;;-2.31;87.18;97888.50;5087276;28;20215;-67
2022/01/27 00:15:58;;;;;;;18.13;13.27;;;;;;;-2.32;87.84;97890.22;5057547;28;20315;-65
2022/01/27 00:18:29;;;;;;;16.90;12.47;;;;;;;-2.24;87.45;97898.69;5076819;28;20198;-65
2022/01/27 00:20:56;;;;;;;18.77;14.07;;;;;;;-2.32;87.12;97904.91;5077817;28;20295;-66
2022/01/27 00:23:22;;;;;;;17.93;13.67;;;;;;;-2.33;87.17;97917.00;5082394;28;20194;-66
2022/01/27 00:25:48;;;;;;;17.20;13.63;;;;;;;-2.40;87.12;97912.84;5077373;28;20213;-66
2022/01/27 00:28:15;;;;;;;19.30;14.03;;;;;;;-2.41;87.09;97903.38;5077538;28;20517;-66
2022/01/27 00:30:41;;;;;;;17.17;13.50;;;;;;;-2.36;87.75;97903.25;5077185;28;20559;-65
2022/01/27 00:33:08;;;;;;;17.63;14.03;;;;;;;-2.39;87.29;97914.56;5069045;28;20236;-66
2022/01/27 00:35:36;;;;;;;20.93;13.87;;;;;;;-2.43;87.01;97912.91;5076348;28;20208;-65
2022/01/27 00:38:03;;;;;;;17.23;13.17;;;;;;;-2.40;87.33;97914.56;5076584;28;20541;-66
2022/01/27 00:40:30;;;;;;;19.87;13.63;;;;;;;-2.40;87.68;97907.66;5076833;28;20194;-64
2022/01/27 00:42:57;;;;;;;18.33;12.83;;;;;;;-2.44;88.83;97906.03;5076725;28;20217;-66
2022/01/27 00:45:24;;;;;;;17.97;13.37;;;;;;;-2.45;88.16;97912.13;5076866;28;20566;-64
2022/01/27 00:47:51;;;;;;;17.57;13.57;;;;;;;-2.41;87.59;97911.16;5085372;28;20264;-67
2022/01/27 00:50:19;;;;;;;15.83;12.60;;;;;;;-2.39;87.10;97909.38;5082368;28;20238;-67
2022/01/27 00:52:50;;;;;;;16.90;12.90;;;;;;;-2.48;87.32;97903.56;5066669;28;20242;-68
2022/01/27 00:55:17;;;;;;;17.87;13.33;;;;;;;-2.48;88.52;97904.41;5082860;28;20203;-66
2022/01/27 00:58:01;;;;;;;17.47;13.77;;;;;;;-2.45;87.63;97903.47;5077298;28;20209;-66
2022/01/27 01:00:32;;;;;;;19.17;13.73;;;;;;;-2.47;88.77;97906.09;5076697;28;20221;-65
2022/01/27 01:03:03;;;;;;;15.60;12.97;;;;;;;-2.42;87.29;97909.44;5076630;28;20293;-66
2022/01/27 01:05:46;;;;;;;17.00;12.67;;;;;;;-2.39;87.66;97903.34;5076900;28;20293;-66
2022/01/27 01:09:00;;;;;;;17.93;13.60;;;;;;;-2.39;87.48;97899.03;5070768;28;20240;-66
2022/01/27 01:11:38;;;;;;;16.90;12.63;;;;;;;-2.36;87.37;97898.94;5086945;28;20215;-67
2022/01/27 01:16:57;;;;;;;17.20;12.90;;;;;;;-2.39;87.81;97904.19;5098068;28;20193;-65
2022/01/27 01:19:35;;;;;;;16.93;12.00;;;;;;;-2.38;87.24;97895.56;5117906;28;20170;-65
2022/01/27 01:29:23;;;;;;;16.67;13.47;;;;;;;-2.42;86.89;97906.84;5097438;28;20210;-65
2022/01/27 01:30:34;;;;;;;15.87;12.37;;;;;;;-2.46;86.75;97915.56;5096572;28;20230;-65
2022/01/27 01:33:04;;;;;;;16.20;12.83;;;;;;;-2.47;87.29;97915.59;5077888;28;20311;-65
2022/01/27 01:35:46;;;;;;;15.90;12.60;;;;;;;-2.45;88.35;97914.69;5076264;28;20231;-65
2022/01/27 01:38:13;;;;;;;15.77;12.97;;;;;;;-2.52;88.17;97916.56;5075483;28;20205;-66
2022/01/27 01:40:40;;;;;;;15.67;12.63;;;;;;;-2.44;87.72;97913.78;5082621;28;20221;-66
2022/01/27 01:43:07;;;;;;;15.80;12.87;;;;;;;-2.39;88.21;97919.75;5096144;28;20212;-66
2022/01/27 01:45:34;;;;;;;16.37;12.90;;;;;;;-2.43;87.61;97928.47;5095232;28;20232;-67
2022/01/27 01:48:01;;;;;;;14.13;11.90;;;;;;;-2.50;87.61;97916.53;5082464;28;20219;-65
2022/01/27 01:50:27;;;;;;;18.10;13.53;;;;;;;-2.51;88.03;97925.16;5095396;28;20248;-66
2022/01/27 01:52:54;;;;;;;16.80;12.70;;;;;;;-2.45;88.00;97925.06;5082335;28;20235;-65
2022/01/27 01:55:20;;;;;;;16.33;13.00;;;;;;;-2.43;87.88;97912.91;5101189;28;20674;-66
2022/01/27 01:57:50;;;;;;;20.73;13.43;;;;;;;-2.45;87.52;97914.69;5095901;28;20211;-66
2022/01/27 02:00:17;;;;;;;14.63;12.43;;;;;;;-2.51;88.29;97915.66;5096170;28;20240;-64
2022/01/27 02:02:44;;;;;;;18.30;13.50;;;;;;;-2.50;87.66;97911.34;5096065;28;20203;-64
2022/01/27 02:05:11;;;;;;;16.60;13.13;;;;;;;-2.52;87.86;97901.03;5095240;28;20209;-66
2022/01/27 02:07:52;;;;;;;18.00;13.60;;;;;;;-2.50;87.71;97903.56;5085974;28;20198;-65
2022/01/27 02:10:33;;;;;;;16.17;13.57;;;;;;;-2.60;86.94;97899.47;5075762;28;20633;-66
2022/01/27 02:18:29;;;;;;;16.73;13.90;;;;;;;-2.64;89.00;97913.38;5094513;28;20220;-67
2022/01/27 02:20:57;;;;;;;17.20;13.87;;;;;;;-2.57;88.24;97914.94;5095048;28;20208;-67
2022/01/27 02:23:23;;;;;;;17.90;13.53;;;;;;;-2.57;87.91;97920.97;5089083;28;20203;-66
2022/01/27 02:25:50;;;;;;;20.30;13.83;;;;;;;-2.52;87.86;97915.72;5075304;28;20207;-66
2022/01/27 02:28:16;;;;;;;17.47;14.13;;;;;;;-2.51;88.08;97917.41;5075425;28;20224;-66
2022/01/27 02:30:43;;;;;;;20.00;15.30;;;;;;;-2.51;88.09;97915.66;5075422;28;20211;-66
2022/01/27 02:33:09;;;;;;;20.47;15.13;;;;;;;-2.50;87.76;97924.28;5095108;28;20233;-67
2022/01/27 02:35:36;;;;;;;18.33;13.97;;;;;;;-2.50;87.95;97916.53;5095798;28;20296;-65
2022/01/27 02:38:05;;;;;;;16.10;12.67;;;;;;;-2.46;87.96;97912.13;5095419;28;20643;-65
2022/01/27 02:40:35;;;;;;;16.40;13.47;;;;;;;-2.41;88.10;97911.16;5095196;28;20226;-65
2022/01/27 02:43:03;;;;;;;17.53;14.63;;;;;;;-2.49;88.99;97913.06;5095169;28;20202;-67
2022/01/27 02:45:33;;;;;;;19.67;14.40;;;;;;;-2.47;87.80;97902.66;5102693;28;20221;-66
2022/01/27 02:48:00;;;;;;;19.30;14.63;;;;;;;-2.41;88.52;97895.63;5098592;28;20205;-66
2022/01/27 02:50:26;;;;;;;16.50;14.73;;;;;;;-2.53;88.99;97890.69;5094862;28;20241;-65
2022/01/27 02:52:53;;;;;;;18.23;14.17;;;;;;;-2.48;88.76;97894.06;5094484;28;20682;-67
2022/01/27 02:55:20;;;;;;;19.27;14.60;;;;;;;-2.43;88.70;97887.00;5099917;28;20316;-67
2022/01/27 02:57:47;;;;;;;18.63;14.77;;;;;;;-2.46;88.05;97896.59;5097507;28;20201;-64
2022/01/27 03:00:14;;;;;;;18.93;14.27;;;;;;;-2.41;88.41;97900.81;5098562;28;20201;-67
2022/01/27 03:02:41;;;;;;;20.17;14.93;;;;;;;-2.45;89.61;97900.91;5099002;28;20202;-65
2022/01/27 03:05:08;;;;;;;17.73;14.17;;;;;;;-2.42;89.32;97888.72;5098947;28;20217;-67
2022/01/27 03:07:34;;;;;;;17.53;13.60;;;;;;;-2.31;88.53;97897.13;5089667;28;20207;-65
2022/01/27 03:10:00;;;;;;;16.33;12.90;;;;;;;-2.35;87.58;97903.25;5078530;28;20210;-65
2022/01/27 03:12:29;;;;;;;13.93;12.07;;;;;;;-2.34;87.25;97899.78;5078395;28;20234;-66
2022/01/27 03:14:57;;;;;;;16.93;12.87;;;;;;;-2.27;87.47;97903.94;5078173;28;20545;-66
2022/01/27 03:17:24;;;;;;;17.13;12.87;;;;;;;-2.22;87.75;97907.25;5087875;28;20695;-65
2022/01/27 03:19:51;;;;;;;16.53;12.23;;;;;;;-2.17;87.14;97905.44;5098255;28;20217;-65
2022/01/27 03:22:18;;;;;;;15.63;12.47;;;;;;;-2.16;86.44;97912.28;5100006;28;20216;-65
2022/01/27 03:24:44;;;;;;;14.27;11.57;;;;;;;-2.09;87.73;97916.44;5102300;28;20212;-66
2022/01/27 03:27:16;;;;;;;16.73;13.53;;;;;;;-2.04;87.50;97916.34;5098528;28;20224;-66
2022/01/27 03:29:44;;;;;;;13.77;12.23;;;;;;;-1.97;87.42;97917.06;5098350;28;20205;-66
2022/01/27 03:32:11;;;;;;;17.33;13.10;;;;;;;-2.01;87.81;97930.09;5098301;28;20229;-64
2022/01/27 03:34:37;;;;;;;17.87;13.37;;;;;;;-2.04;88.98;97931.91;5098277;28;20206;-66
2022/01/27 03:37:04;;;;;;;17.90;13.50;;;;;;;-1.93;88.26;97926.47;5095120;28;20583;-67
2022/01/27 03:39:30;;;;;;;18.03;13.60;;;;;;;-1.89;87.71;97922.91;5098477;28;20209;-66
2022/01/27 03:41:57;;;;;;;17.13;13.40;;;;;;;-1.90;87.82;97913.44;5097818;28;20575;-66
2022/01/27 03:44:25;;;;;;;16.47;13.40;;;;;;;-1.97;87.53;97907.53;5079655;28;20206;-66
2022/01/27 03:46:55;;;;;;;14.90;12.20;;;;;;;-1.95;88.57;97904.94;5077691;28;20210;-65
2022/01/27 03:49:21;;;;;;;16.43;12.60;;;;;;;-1.95;88.04;97910.97;5077429;28;20245;-66
2022/01/27 03:51:48;;;;;;;17.77;13.57;;;;;;;-1.90;86.80;97908.25;5077367;28;20202;-64
2022/01/27 03:54:14;;;;;;;17.13;14.27;;;;;;;-1.97;87.46;97897.19;5081032;28;20243;-64
2022/01/27 03:56:41;;;;;;;18.57;14.23;;;;;;;-2.08;87.10;97907.78;5101441;28;20218;-66
2022/01/27 03:59:07;;;;;;;19.23;15.13;;;;;;;-1.97;88.26;97901.50;5097698;28;20216;-65
2022/01/27 04:01:35;;;;;;;20.30;15.00;;;;;;;-1.89;88.23;97899.59;5097582;28;20227;-64
2022/01/27 04:04:03;;;;;;;19.07;15.13;;;;;;;-1.91;88.86;97914.34;5097846;28;20201;-66
2022/01/27 04:06:35;;;;;;;19.77;15.00;;;;;;;-1.87;88.99;97902.97;5104468;28;20194;-66
2022/01/27 04:09:02;;;;;;;20.53;15.50;;;;;;;-1.95;90.10;97907.53;5106521;28;20190;-65
2022/01/27 04:11:28;;;;;;;20.60;15.77;;;;;;;-2.03;91.60;97895.59;5120408;28;20206;-65
2022/01/27 04:13:55;;;;;;;21.47;15.70;;;;;;;-1.98;90.68;97899.81;5113967;28;20226;-66
2022/01/27 04:16:22;;;;;;;20.90;16.43;;;;;;;-1.96;90.40;97903.22;5098144;28;20532;-65
2022/01/27 04:18:48;;;;;;;22.13;15.90;;;;;;;-1.96;90.95;97898.03;5078752;28;20209;-67
2022/01/27 04:21:17;;;;;;;23.20;16.90;;;;;;;-1.90;90.30;97890.09;5094542;28;20206;-65
2022/01/27 04:23:43;;;;;;;23.47;16.87;;;;;;;-1.91;90.14;97896.19;5099806;28;20200;-65
2022/01/27 04:26:12;;;;;;;21.73;15.57;;;;;;;-1.91;89.55;97897.03;5100208;28;20194;-68
2022/01/27 04:28:39;;;;;;;16.60;14.10;;;;;;;-2.05;87.22;97897.34;5099468;28;20184;-66
2022/01/27 04:31:08;;;;;;;17.70;12.80;;;;;;;-2.04;87.55;97899.06;5089745;28;20300;-65
2022/01/27 04:33:36;;;;;;;15.33;13.10;;;;;;;-2.10;87.14;97891.44;5077302;28;20233;-64
2022/01/27 04:36:09;;;;;;;17.00;13.13;;;;;;;-2.15;87.73;97895.00;5093166;28;20239;-67
2022/01/27 04:38:43;;;;;;;18.63;14.17;;;;;;;-2.15;87.37;97901.06;5102842;28;20202;-64
2022/01/27 04:41:15;;;;;;;17.27;14.23;;;;;;;-2.15;87.63;97893.28;5123242;28;20292;-66
2022/01/27 04:43:48;;;;;;;16.57;13.87;;;;;;;-2.10;87.89;97894.03;5100776;28;20203;-65
2022/01/27 04:46:23;;;;;;;17.10;14.63;;;;;;;-2.11;88.71;97889.72;5084955;28;20610;-65
2022/01/27 04:48:53;;;;;;;18.80;14.80;;;;;;;-2.05;88.97;97899.09;5097238;28;20293;-66
2022/01/27 04:51:22;;;;;;;22.10;16.63;;;;;;;-2.01;88.31;97895.53;5096578;28;20649;-64
2022/01/27 04:53:55;;;;;;;27.60;17.50;;;;;;;-1.97;88.74;97896.31;5096671;28;20251;-66
2022/01/27 04:56:24;;;;;;;24.23;18.33;;;;;;;-2.02;90.16;97899.88;5102034;28;20193;-66
2022/01/27 04:58:54;;;;;;;25.33;17.20;;;;;;;-1.97;89.23;97894.59;5096732;28;20217;-66
2022/01/27 05:01:27;;;;;;;22.33;16.43;;;;;;;-1.96;88.96;97895.44;5097236;28;20201;-65
2022/01/27 05:03:59;;;;;;;20.27;15.10;;;;;;;-1.99;88.80;97901.56;5096782;28;20201;-66
2022/01/27 05:06:25;;;;;;;19.70;14.60;;;;;;;-1.89;88.32;97899.59;5096481;28;20208;-64
2022/01/27 05:08:54;;;;;;;19.03;14.07;;;;;;;-1.83;87.39;97895.09;5076788;28;20210;-65
2022/01/27 05:11:25;;;;;;;18.97;15.30;;;;;;;-1.89;88.16;97909.97;5076388;28;20206;-67
2022/01/27 05:13:56;;;;;;;22.53;15.83;;;;;;;-1.96;88.79;97913.59;5083848;28;20671;-65
2022/01/27 05:16:22;;;;;;;22.50;15.47;;;;;;;-2.03;88.63;97918.91;5095192;28;20198;-65
2022/01/27 05:18:48;;;;;;;19.37;15.20;;;;;;;-1.99;88.53;97919.69;5076348;28;20211;-65
2022/01/27 05:21:15;;;;;;;19.93;14.53;;;;;;;-2.07;87.31;97922.47;5090414;28;20212;-66
2022/01/27 05:23:41;;;;;;;19.17;14.60;;;;;;;-2.08;87.82;97919.91;5089245;28;20252;-66
2022/01/27 05:26:09;;;;;;;19.17;14.10;;;;;;;-2.15;87.80;97916.59;5082553;28;20537;-66
2022/01/27 05:28:35;;;;;;;17.73;13.80;;;;;;;-2.19;87.42;97920.13;5088209;28;20220;-66
2022/01/27 05:31:02;;;;;;;17.87;13.57;;;;;;;-2.20;86.74;97917.59;5097310;28;20636;-67
2022/01/27 05:33:29;;;;;;;18.37;14.53;;;;;;;-2.28;86.58;97917.78;5095935;28;20659;-65
2022/01/27 05:35:55;;;;;;;18.37;13.83;;;;;;;-2.34;86.25;97922.25;5096420;28;20202;-65
2022/01/27 05:38:21;;;;;;;15.63;13.00;;;;;;;-2.36;87.24;97914.50;5097501;28;20205;-66
2022/01/27 05:40:48;;;;;;;17.03;12.73;;;;;;;-2.32;86.33;97916.13;5096857;28;20202;-67
2022/01/27 05:43:16;;;;;;;15.03;12.30;;;;;;;-2.33;85.98;97914.41;5097214;28;20597;-66
2022/01/27 05:45:42;;;;;;;17.30;13.07;;;;;;;-2.46;87.73;97909.53;5096863;28;20205;-67
2022/01/27 05:48:09;;;;;;;16.20;12.47;;;;;;;-2.49;87.29;97923.41;5098163;28;20209;-66
2022/01/27 05:50:36;;;;;;;17.03;11.90;;;;;;;-2.48;86.58;97912.19;5096301;28;20246;-65
2022/01/27 05:53:02;;;;;;;15.63;11.93;;;;;;;-2.45;87.02;97909.53;5097191;28;20205;-67
2022/01/27 05:55:29;;;;;;;17.43;13.20;;;;;;;-2.41;86.60;97905.13;5101643;28;20198;-66
2022/01/27 05:57:55;;;;;;;16.83;12.43;;;;;;;-2.43;86.70;97907.75;5096590;28;20213;-66
2022/01/27 06:00:23;;;;;;;17.17;13.30;;;;;;;-2.38;87.44;97905.91;5096805;28;20242;-65
2022/01/27 06:02:50;;;;;;;21.17;15.00;;;;;;;-2.40;88.73;97886.94;5097727;28;20220;-66
2022/01/27 06:05:17;;;;;;;17.33;14.10;;;;;;;-2.35;88.84;97887.72;5097369;28;20216;-66
2022/01/27 06:07:43;;;;;;;18.90;14.43;;;;;;;-2.37;90.00;97879.09;5097469;28;20511;-65
2022/01/27 06:10:10;;;;;;;17.57;13.93;;;;;;;-2.32;88.65;97884.19;5097167;28;20226;-66
2022/01/27 06:12:45;;;;;;;22.33;14.40;;;;;;;-2.38;87.63;97877.41;5097123;28;20223;-65
2022/01/27 06:15:12;;;;;;;17.37;13.73;;;;;;;-2.33;87.75;97887.66;5097795;28;20221;-66
2022/01/27 06:17:39;;;;;;;20.37;14.70;;;;;;;-2.34;87.64;97875.59;5086255;28;20210;-65
2022/01/27 06:20:07;;;;;;;21.13;14.33;;;;;;;-2.40;87.09;97871.41;5095930;28;20215;-66
2022/01/27 06:22:34;;;;;;;16.37;12.50;;;;;;;-2.40;86.92;97873.13;5107420;28;20207;-66
2022/01/27 06:25:00;;;;;;;18.00;12.83;;;;;;;-2.39;87.43;97877.44;5101054;28;20211;-66
2022/01/27 06:27:27;;;;;;;16.40;13.43;;;;;;;-2.37;87.54;97866.16;5100488;28;20206;-65
2022/01/27 06:29:53;;;;;;;19.10;14.17;;;;;;;-2.33;88.29;97872.13;5100254;28;20503;-66
2022/01/27 06:32:19;;;;;;;18.17;13.70;;;;;;;-2.27;87.99;97861.63;5109070;28;20199;-67
2022/01/27 06:34:47;;;;;;;18.80;13.87;;;;;;;-2.25;87.75;97860.69;5121774;28;20212;-65
2022/01/27 06:37:14;;;;;;;16.83;13.27;;;;;;;-2.25;87.98;97863.28;5122361;28;20177;-66
2022/01/27 06:39:41;;;;;;;17.37;13.90;;;;;;;-2.19;86.97;97857.94;5122367;28;20198;-65
2022/01/27 06:42:08;;;;;;;59.23;31.80;;;;;;;-2.08;85.46;97871.50;5122223;28;20182;-65
2022/01/27 06:44:35;;;;;;;48.40;26.80;;;;;;;-2.12;86.12;97869.03;5121928;28;20190;-65
2022/01/27 06:47:01;;;;;;;59.00;34.47;;;;;;;-2.19;86.24;97868.31;5103648;28;20212;-65
2022/01/27 06:49:28;;;;;;;65.27;34.50;;;;;;;-2.19;86.67;97876.09;5100803;28;20244;-66
2022/01/27 06:51:55;;;;;;;63.37;33.67;;;;;;;-2.15;86.93;97871.69;5100439;28;20217;-66
2022/01/27 06:54:22;;;;;;;32.50;21.93;;;;;;;-2.22;87.94;97876.16;5103737;28;20950;-66
2022/01/27 06:56:48;;;;;;;41.10;25.40;;;;;;;-2.18;87.49;97877.81;5118215;28;20201;-66
2022/01/27 06:59:15;;;;;;;36.63;23.53;;;;;;;-2.20;86.73;97881.31;5095939;28;20203;-65
2022/01/27 07:01:41;;;;;;;28.00;18.50;;;;;;;-2.27;85.86;97880.63;5110392;28;20201;-66
2022/01/27 07:04:08;;;;;;;19.00;14.63;;;;;;;-2.30;85.29;97878.06;5116093;28;20212;-66
2022/01/27 07:06:35;;;;;;;19.30;14.67;;;;;;;-2.35;85.16;97884.25;5113793;28;20197;-65
2022/01/27 07:09:04;;;;;;;15.83;12.83;;;;;;;-2.44;85.31;97885.31;5079903;28;20291;-65
2022/01/27 07:11:30;;;;;;;18.70;13.17;;;;;;;-2.39;84.88;97888.66;5082652;28;20205;-65
2022/01/27 07:13:57;;;;;;;19.23;13.90;;;;;;;-2.43;84.50;97883.56;5110226;28;20307;-67
2022/01/27 07:16:23;;;;;;;17.50;13.50;;;;;;;-2.45;84.63;97883.63;5115188;28;20271;-66
2022/01/27 07:18:52;;;;;;;18.93;13.63;;;;;;;-2.69;84.84;97884.13;5094030;28;20224;-65
2022/01/27 07:21:18;;;;;;;16.13;12.63;;;;;;;-2.63;85.67;97887.47;5078517;28;20213;-66
2022/01/27 07:23:44;;;;;;;16.10;12.80;;;;;;;-2.69;85.94;97884.13;5078980;28;20221;-66
2022/01/27 07:26:13;;;;;;;16.60;12.37;;;;;;;-2.61;87.60;97877.06;5080894;28;20208;-64
2022/01/27 07:28:40;;;;;;;16.33;12.87;;;;;;;-2.59;87.68;97890.84;5098873;28;20284;-66
2022/01/27 07:31:06;;;;;;;17.27;13.63;;;;;;;-2.61;87.46;97887.41;5096877;28;20236;-66
2022/01/27 07:33:33;;;;;;;17.40;12.37;;;;;;;-2.53;87.27;97885.53;5099269;28;20207;-66
2022/01/27 07:35:59;;;;;;;16.83;13.00;;;;;;;-2.45;86.34;97883.63;5118598;28;20210;-66
2022/01/27 07:38:27;;;;;;;15.50;12.80;;;;;;;-2.42;86.87;97872.34;5118498;28;20213;-66
2022/01/27 07:40:53;;;;;;;17.10;12.60;;;;;;;-2.26;86.55;97871.94;5120750;28;20193;-66
2022/01/27 07:43:21;;;;;;;17.70;13.70;;;;;;;-2.18;86.68;97871.75;5104734;28;20213;-66
2022/01/27 07:45:47;;;;;;;16.03;12.97;;;;;;;-2.14;85.70;97866.47;5098584;28;20209;-67
2022/01/27 07:48:14;;;;;;;17.27;12.50;;;;;;;-2.09;86.19;97868.97;5098085;28;20214;-66
2022/01/27 07:50:40;;;;;;;18.33;13.90;;;;;;;-2.14;86.91;97884.63;5097792;28;20320;-66
2022/01/27 07:53:07;;;;;;;16.23;12.30;;;;;;;-2.01;85.87;97886.03;5098905;28;20537;-65
2022/01/27 07:55:33;;;;;;;16.87;12.97;;;;;;;-1.90;85.91;97880.59;5103344;28;20220;-67
2022/01/27 07:58:00;;;;;;;16.90;12.90;;;;;;;-1.83;85.02;97895.09;5099487;28;20629;-67
2022/01/27 08:00:27;;;;;;;17.60;13.07;;;;;;;-1.82;86.44;97895.97;5110516;28;20240;-66
2022/01/27 08:02:54;;;;;;;18.13;13.20;;;;;;;-1.75;85.40;97897.50;5117556;28;20206;-66
2022/01/27 08:05:21;;;;;;;16.97;13.27;;;;;;;-1.63;85.31;97899.81;5116249;28;20220;-66
2022/01/27 08:07:48;;;;;;;15.67;13.07;;;;;;;-1.61;85.42;97891.09;5111638;28;20202;-65
2022/01/27 08:10:14;;;;;;;18.80;14.03;;;;;;;-1.64;86.73;97890.31;5097426;28;20205;-64
2022/01/27 08:12:41;;;;;;;20.13;14.70;;;;;;;-1.66;86.83;97892.94;5097542;28;20540;-64
2022/01/27 08:15:08;;;;;;;20.60;15.63;;;;;;;-1.56;86.71;97893.59;5097541;28;20225;-66
2022/01/27 08:17:36;;;;;;;19.60;14.37;;;;;;;-1.40;86.67;97894.03;5086714;28;20214;-65
2022/01/27 08:20:03;;;;;;;21.77;15.97;;;;;;;-1.24;86.55;97893.56;5081564;28;20222;-65
2022/01/27 08:22:29;;;;;;;17.63;13.90;;;;;;;-1.12;85.65;97901.03;5098458;28;20219;-64
2022/01/27 08:24:56;;;;;;;21.37;15.73;;;;;;;-1.13;85.92;97888.94;5098334;28;20606;-64
2022/01/27 08:27:27;;;;;;;19.97;16.03;;;;;;;-1.05;85.27;97892.19;5098334;28;20212;-65
2022/01/27 08:30:02;;;;;;;20.20;16.23;;;;;;;-0.94;84.98;97893.63;5097662;28;20262;-65
2022/01/27 08:32:40;;;;;;;23.20;16.87;;;;;;;-0.91;85.99;97898.72;5110539;28;20205;-65
2022/01/27 08:35:10;;;;;;;21.67;16.97;;;;;;;-0.77;85.81;97900.06;5112649;28;20217;-67
2022/01/27 08:37:37;;;;;;;23.27;16.90;;;;;;;-0.68;85.78;97898.94;5106766;28;20236;-63
2022/01/27 08:40:04;;;;;;;24.60;18.10;;;;;;;-0.65;85.61;97901.47;5091043;28;20229;-64
2022/01/27 08:42:30;;;;;;;24.00;17.67;;;;;;;-0.56;84.90;97904.63;5097091;28;20212;-65
2022/01/27 08:44:57;;;;;;;23.60;18.03;;;;;;;-0.45;85.94;97904.31;5096970;28;20205;-65
2022/01/27 08:47:23;;;;;;;21.67;16.70;;;;;;;-0.31;84.48;97894.34;5097085;28;20205;-64
2022/01/27 08:49:50;;;;;;;23.97;17.33;;;;;;;-0.14;83.51;97893.84;5096751;28;20233;-64
2022/01/27 08:52:18;;;;;;;25.37;18.23;;;;;;;-0.10;82.46;97896.31;5097430;28;20210;-64
2022/01/27 08:54:44;;;;;;;25.30;17.27;;;;;;;-0.14;82.21;97889.50;5101531;28;20217;-65
2022/01/27 08:57:12;;;;;;;34.47;18.33;;;;;;;-0.14;83.10;97899.88;5096773;28;20212;-66
2022/01/27 08:59:39;;;;;;;23.73;18.03;;;;;;;-0.14;82.19;97897.28;5098028;28;20264;-66
2022/01/27 09:02:05;;;;;;;23.63;18.53;;;;;;;-0.11;82.38;97902.38;5096860;28;20210;-66
2022/01/27 09:04:32;;;;;;;25.47;18.57;;;;;;;-0.06;82.79;97897.91;5098249;28;20280;-65
2022/01/27 09:07:00;;;;;;;26.90;17.13;;;;;;;0.15;83.54;97900.72;5092336;28;20202;-65
2022/01/27 09:09:28;;;;;;;22.17;16.40;;;;;;;0.18;81.36;97890.25;5077139;28;20239;-65
2022/01/27 09:11:57;;;;;;;21.80;16.67;;;;;;;0.27;81.64;97900.34;5081680;28;20218;-65
2022/01/27 09:14:28;;;;;;;21.10;16.47;;;;;;;0.77;79.75;97896.06;5097113;28;20279;-65
2022/01/27 09:16:54;;;;;;;22.83;16.47;;;;;;;1.28;79.48;97898.53;5090193;28;20199;-65
2022/01/27 09:19:20;;;;;;;21.77;16.70;;;;;;;1.75;76.15;97899.38;5076450;28;20207;-65
2022/01/27 09:21:47;;;;;;;19.43;16.00;;;;;;;2.00;73.57;97906.22;5078906;28;20614;-65
2022/01/27 09:24:16;;;;;;;27.47;17.23;;;;;;;2.02;73.59;97902.72;5097285;28;20207;-64
2022/01/27 09:26:58;;;;;;;20.40;16.77;;;;;;;2.14;73.52;97894.38;5096603;28;20533;-65
2022/01/27 09:29:25;;;;;;;20.40;14.60;;;;;;;2.83;72.77;97901.09;5096529;28;20205;-65
2022/01/27 09:31:52;;;;;;;19.87;15.17;;;;;;;2.86;71.68;97896.59;5096433;28;20635;-65
2022/01/27 09:34:19;;;;;;;17.80;15.07;;;;;;;2.79;71.27;97886.44;5095823;28;20690;-66
2022/01/27 09:36:47;;;;;;;19.50;15.33;;;;;;;2.98;70.93;97885.59;5096216;28;20209;-65
2022/01/27 09:39:14;;;;;;;19.93;15.13;;;;;;;3.11;69.17;97891.16;5095596;28;20528;-66
2022/01/27 09:41:42;;;;;;;20.00;15.17;;;;;;;3.08;69.08;97882.59;5096159;28;20198;-65
2022/01/27 09:44:13;;;;;;;18.53;15.10;;;;;;;2.83;69.18;97883.66;5095876;28;20315;-63
2022/01/27 09:46:41;;;;;;;23.80;16.17;;;;;;;2.74;70.58;97886.63;5097911;28;20212;-64
2022/01/27 09:49:13;;;;;;;24.33;17.40;;;;;;;2.61;70.20;97879.38;5097223;28;20275;-66
2022/01/27 09:51:42;;;;;;;24.27;17.20;;;;;;;3.59;68.29;97880.25;5085052;28;20224;-66
2022/01/27 09:54:09;;;;;;;21.10;16.57;;;;;;;3.70;66.15;97879.75;5077766;28;20241;-66
2022/01/27 09:56:35;;;;;;;22.67;16.87;;;;;;;3.38;68.19;97870.75;5099830;28;20205;-66
2022/01/27 09:59:02;;;;;;;21.07;15.93;;;;;;;3.30;67.47;97878.09;5091296;28;20224;-67
2022/01/27 10:01:30;;;;;;;24.20;17.27;;;;;;;3.00;68.80;97881.16;5095259;28;20213;-67
2022/01/27 10:03:59;;;;;;;22.37;16.27;;;;;;;3.98;67.54;97877.53;5075796;28;20210;-66
2022/01/27 10:06:29;;;;;;;23.10;16.80;;;;;;;4.40;65.87;97874.63;5076627;28;20209;-66
2022/01/27 10:09:16;;;;;;;21.57;17.17;;;;;;;4.67;64.32;97867.19;5100286;28;20194;-65
2022/01/27 10:11:45;;;;;;;27.77;16.67;;;;;;;5.01;63.15;97872.41;5100034;28;20288;-66
2022/01/27 10:14:20;;;;;;;20.97;16.00;;;;;;;5.34;59.66;97854.06;5099614;28;20704;-66
2022/01/27 10:16:50;;;;;;;22.93;16.33;;;;;;;5.47;59.69;97855.09;5095717;28;20288;-67
2022/01/27 10:19:17;;;;;;;21.87;16.93;;;;;;;5.90;59.21;97854.47;5079547;28;20579;-66
2022/01/27 10:21:43;;;;;;;19.00;16.33;;;;;;;6.24;57.40;97842.06;5079607;28;20233;-66
2022/01/27 10:24:20;;;;;;;21.17;17.10;;;;;;;7.08;57.52;97857.28;5099224;28;20217;-66
2022/01/27 10:26:53;;;;;;;19.93;16.37;;;;;;;6.97;54.91;97847.38;5110504;28;20284;-67
2022/01/27 10:29:33;;;;;;;21.13;16.47;;;;;;;6.88;55.48;97845.28;5103565;28;20206;-68
2022/01/27 10:32:07;;;;;;;23.47;17.77;;;;;;;6.93;55.32;97852.91;5103310;28;20231;-65
2022/01/27 10:34:53;;;;;;;23.77;17.30;;;;;;;6.50;56.13;97857.19;5099806;28;20214;-67
2022/01/27 10:37:20;;;;;;;23.73;16.47;;;;;;;6.30;57.82;97866.25;5100085;28;20206;-66
2022/01/27 10:39:46;;;;;;;21.27;15.90;;;;;;;6.11;57.62;97867.34;5100491;28;20527;-68
2022/01/27 10:42:13;;;;;;;21.53;16.03;;;;;;;6.40;57.10;97864.78;5079794;28;20206;-66
2022/01/27 10:44:44;;;;;;;20.37;16.63;;;;;;;6.49;56.33;97855.50;5102169;28;20206;-66
2022/01/27 10:47:17;;;;;;;20.50;16.27;;;;;;;6.53;57.04;97864.91;5118146;28;20220;-67
2022/01/27 10:49:47;;;;;;;20.40;16.30;;;;;;;6.84;56.03;97863.97;5120983;28;20248;-69
2022/01/27 10:52:17;;;;;;;22.97;16.70;;;;;;;7.23;56.18;97871.25;5121803;28;20212;-68
2022/01/27 10:54:55;;;;;;;22.03;16.50;;;;;;;7.35;54.71;97866.13;5121291;28;20260;-69
2022/01/27 10:57:24;;;;;;;19.20;17.07;;;;;;;7.33;54.99;97860.09;5110083;28;20182;-67
2022/01/27 11:00:06;;;;;;;32.07;17.03;;;;;;;7.09;55.00;97865.97;5098744;28;20273;-70
2022/01/27 11:02:33;;;;;;;26.90;16.80;;;;;;;7.00;53.68;97859.50;5096142;28;20193;-71
2022/01/27 11:05:00;;;;;;;21.73;16.63;;;;;;;7.19;54.67;97843.47;5119676;28;20192;-73
2022/01/27 11:07:28;;;;;;;17.43;14.97;;;;;;;6.81;54.27;97843.97;5121014;28;20202;-70
2022/01/27 11:09:56;;;;;;;15.40;13.77;;;;;;;6.97;54.78;97828.97;5118179;28;20202;-72
2022/01/27 11:12:23;;;;;;;17.23;14.13;;;;;;;7.12;54.66;97831.63;5097312;28;20255;-72
2022/01/27 11:14:50;;;;;;;18.13;13.07;;;;;;;7.01;54.45;97824.38;5091688;28;20229;-69
2022/01/27 11:17:20;;;;;;;13.47;12.07;;;;;;;7.29;53.49;97819.13;5089956;28;20210;-67
2022/01/27 11:22:48;;;;;;;15.77;13.37;;;;;;;7.19;54.68;97823.25;5074583;28;20210;-76
2022/01/27 11:28:01;;;;;;;15.37;13.77;;;;;;;7.24;54.02;97812.44;5098499;28;20280;-67
2022/01/27 11:30:34;;;;;;;15.47;13.43;;;;;;;7.56;54.03;97800.78;5098524;28;20213;-72
2022/01/27 11:33:04;;;;;;;15.50;13.17;;;;;;;7.64;50.17;97803.78;5093777;28;20205;-71
2022/01/27 11:35:33;;;;;;;16.43;13.43;;;;;;;7.26;53.34;97807.94;5077836;28;20238;-70
2022/01/27 11:38:03;;;;;;;15.03;12.67;;;;;;;7.12;54.17;97806.13;5078036;28;20653;-75
2022/01/27 11:40:35;;;;;;;16.27;13.60;;;;;;;7.44;54.03;97807.63;5084287;28;20198;-74
2022/01/27 11:43:05;;;;;;;16.20;13.23;;;;;;;6.84;56.67;97812.22;5085354;28;20267;-76
2022/01/27 11:45:41;;;;;;;17.37;13.70;;;;;;;7.14;55.12;97808.69;5098324;28;20209;-77